sensor_id;sensor_type;location;lat;lon;timestamp;pressure;altitude;pressure_sealevel;temperature;humidity
28630;BME280;15817;42.130;24.762;2023-04-26T00:01:31;98898.78;;;15.05;100.00
28630;BME280;15817;42.130;24.762;2023-04-26T00:03:57;98878.59;;;14.97;100.00
28630;BME280;15817;42.130;24.762;2023-04-26T00:06:23;98876.09;;;14.92;100.00
28630;BME280;15817;42.130;24.762;2023-04-26T00:08:48;98890.91;;;15.01;100.00
28630;BME280;15817;42.130;24.762;2023-04-26T00:11:14;98878.59;;;14.97;100.00
28630;BME280;15817;42.130;24.762;2023-04-26T00:13:40;98883.75;;;15.01;100.00
28630;BME280;15817;42.130;24.762;2023-04-26T00:16:06;98879.53;;;14.96;100.00
28630;BME280;15817;42.130;24.762;2023-04-26T00:18:32;98877.78;;;14.95;100.00
28630;BME280;15817;42.130;24.762;2023-04-26T00:20:57;98861.78;;;14.93;100.00
28630;BME280;15817;42.130;24.762;2023-04-26T00:23:24;98875.97;;;14.95;100.00
28630;BME280;15817;42.130;24.762;2023-04-26T00:25:50;98863.63;;;14.91;100.00
28630;BME280;15817;42.130;24.762;2023-04-26T00:28:16;98868.25;;;14.88;100.00
28630;BME280;15817;42.130;24.762;2023-04-26T00:30:42;98863.94;;;14.83;100.00
28630;BME280;15817;42.130;24.762;2023-04-26T00:33:13;98862.19;;;14.82;100.00
28630;BME280;15817;42.130;24.762;2023-04-26T00:35:39;98853.59;;;14.74;100.00
28630;BME280;15817;42.130;24.762;2023-04-26T00:38:05;98850.28;;;14.68;100.00
28630;BME280;15817;42.130;24.762;2023-04-26T00:40:32;98845.84;;;14.67;100.00
28630;BME280;15817;42.130;24.762;2023-04-26T00:42:59;98844.09;;;14.66;100.00
28630;BME280;15817;42.130;24.762;2023-04-26T00:45:25;98839.56;;;14.68;100.00
28630;BME280;15817;42.130;24.762;2023-04-26T00:47:52;98834.22;;;14.68;100.00
28630;BME280;15817;42.130;24.762;2023-04-26T00:50:18;98827.13;;;14.67;100.00
28630;BME280;15817;42.130;24.762;2023-04-26T00:52:45;98821.66;;;14.70;100.00
28630;BME280;15817;42.130;24.762;2023-04-26T00:55:12;98815.47;;;14.68;100.00
28630;BME280;15817;42.130;24.762;2023-04-26T00:57:39;98826.09;;;14.71;100.00
28630;BME280;15817;42.130;24.762;2023-04-26T01:00:05;98819.75;;;14.73;100.00
28630;BME280;15817;42.130;24.762;2023-04-26T01:02:32;98807.50;;;14.66;100.00
28630;BME280;15817;42.130;24.762;2023-04-26T01:04:57;98815.44;;;14.69;100.00
28630;BME280;15817;42.130;24.762;2023-04-26T01:07:23;98816.19;;;14.73;100.00
28630;BME280;15817;42.130;24.762;2023-04-26T01:09:50;98811.00;;;14.68;100.00
28630;BME280;15817;42.130;24.762;2023-04-26T01:12:16;98812.81;;;14.68;100.00
28630;BME280;15817;42.130;24.762;2023-04-26T01:14:43;98812.13;;;14.63;100.00
28630;BME280;15817;42.130;24.762;2023-04-26T01:17:09;98820.09;;;14.64;100.00
28630;BME280;15817;42.130;24.762;2023-04-26T01:19:35;98821.91;;;14.64;100.00
28630;BME280;15817;42.130;24.762;2023-04-26T01:22:02;98823.56;;;14.66;100.00
28630;BME280;15817;42.130;24.762;2023-04-26T01:24:28;98817.53;;;14.61;100.00
28630;BME280;15817;42.130;24.762;2023-04-26T01:26:55;98821.16;;;14.60;100.00
28630;BME280;15817;42.130;24.762;2023-04-26T01:29:21;98828.13;;;14.64;100.00
28630;BME280;15817;42.130;24.762;2023-04-26T01:31:50;98823.78;;;14.62;100.00
28630;BME280;15817;42.130;24.762;2023-04-26T01:34:16;98812.25;;;14.60;100.00
28630;BME280;15817;42.130;24.762;2023-04-26T01:36:44;98817.44;;;14.64;100.00
28630;BME280;15817;42.130;24.762;2023-04-26T01:39:10;98814.94;;;14.60;100.00
28630;BME280;15817;42.130;24.762;2023-04-26T01:41:36;98816.84;;;14.56;100.00
28630;BME280;15817;42.130;24.762;2023-04-26T01:44:02;98798.31;;;14.52;100.00
28630;BME280;15817;42.130;24.762;2023-04-26T01:46:29;98796.50;;;14.52;100.00
28630;BME280;15817;42.130;24.762;2023-04-26T01:48:55;98785.22;;;14.44;100.00
28630;BME280;15817;42.130;24.762;2023-04-26T01:51:22;98796.66;;;14.47;100.00
28630;BME280;15817;42.130;24.762;2023-04-26T01:53:47;98799.41;;;14.46;100.00
28630;BME280;15817;42.130;24.762;2023-04-26T01:56:13;98790.75;;;14.39;100.00
28630;BME280;15817;42.130;24.762;2023-04-26T01:58:39;98802.28;;;14.41;100.00
28630;BME280;15817;42.130;24.762;2023-04-26T02:01:06;98799.66;;;14.40;100.00
28630;BME280;15817;42.130;24.762;2023-04-26T02:03:32;98805.06;;;14.37;100.00
28630;BME280;15817;42.130;24.762;2023-04-26T02:05:58;98796.28;;;14.33;100.00
28630;BME280;15817;42.130;24.762;2023-04-26T02:08:25;98805.06;;;14.37;99.44
28630;BME280;15817;42.130;24.762;2023-04-26T02:10:51;98811.41;;;14.34;99.04
28630;BME280;15817;42.130;24.762;2023-04-26T02:13:16;98808.94;;;14.30;98.54
28630;BME280;15817;42.130;24.762;2023-04-26T02:15:50;98804.56;;;14.27;97.17
28630;BME280;15817;42.130;24.762;2023-04-26T02:18:17;98815.84;;;14.35;96.79
28630;BME280;15817;42.130;24.762;2023-04-26T02:20:48;98814.28;;;14.30;96.81
28630;BME280;15817;42.130;24.762;2023-04-26T02:23:32;98814.50;;;14.24;98.48
28630;BME280;15817;42.130;24.762;2023-04-26T02:26:01;98811.00;;;14.22;97.97
28630;BME280;15817;42.130;24.762;2023-04-26T02:28:27;98827.56;;;14.31;98.39
28630;BME280;15817;42.130;24.762;2023-04-26T02:30:54;98820.59;;;14.27;98.59
28630;BME280;15817;42.130;24.762;2023-04-26T02:33:47;98814.44;;;14.25;98.97
28630;BME280;15817;42.130;24.762;2023-04-26T02:36:12;98819.63;;;14.30;99.15
28630;BME280;15817;42.130;24.762;2023-04-26T02:38:56;98800.31;;;14.22;99.33
28630;BME280;15817;42.130;24.762;2023-04-26T02:41:26;98823.34;;;14.26;100.00
28630;BME280;15817;42.130;24.762;2023-04-26T02:43:55;98820.81;;;14.21;99.88
28630;BME280;15817;42.130;24.762;2023-04-26T02:46:21;98814.91;;;14.13;100.00
28630;BME280;15817;42.130;24.762;2023-04-26T02:48:46;98821.94;;;14.16;100.00
28630;BME280;15817;42.130;24.762;2023-04-26T02:51:12;98830.06;;;14.12;100.00
28630;BME280;15817;42.130;24.762;2023-04-26T02:53:47;98834.53;;;14.12;100.00
28630;BME280;15817;42.130;24.762;2023-04-26T02:56:25;98821.34;;;14.07;100.00
28630;BME280;15817;42.130;24.762;2023-04-26T02:59:28;98828.41;;;14.08;100.00
28630;BME280;15817;42.130;24.762;2023-04-26T03:02:03;98844.31;;;14.13;100.00
28630;BME280;15817;42.130;24.762;2023-04-26T03:04:32;98844.31;;;14.13;100.00
28630;BME280;15817;42.130;24.762;2023-04-26T03:06:59;98828.25;;;14.13;100.00
28630;BME280;15817;42.130;24.762;2023-04-26T03:09:25;98825.69;;;14.10;100.00
28630;BME280;15817;42.130;24.762;2023-04-26T03:11:53;98815.94;;;14.09;100.00
28630;BME280;15817;42.130;24.762;2023-04-26T03:14:20;98803.56;;;14.06;100.00
28630;BME280;15817;42.130;24.762;2023-04-26T03:16:45;98815.94;;;14.09;100.00
28630;BME280;15817;42.130;24.762;2023-04-26T03:19:13;98813.38;;;14.06;100.00
28630;BME280;15817;42.130;24.762;2023-04-26T03:21:40;98804.59;;;14.02;100.00
28630;BME280;15817;42.130;24.762;2023-04-26T03:24:06;98809.03;;;14.03;100.00
28630;BME280;15817;42.130;24.762;2023-04-26T03:26:32;98808.16;;;14.03;100.00
28630;BME280;15817;42.130;24.762;2023-04-26T03:28:58;98800.47;;;13.94;100.00
28630;BME280;15817;42.130;24.762;2023-04-26T03:31:27;98816.38;;;13.97;100.00
28630;BME280;15817;42.130;24.762;2023-04-26T03:33:53;98807.72;;;13.90;100.00
28630;BME280;15817;42.130;24.762;2023-04-26T03:36:21;98816.56;;;13.92;100.00
28630;BME280;15817;42.130;24.762;2023-04-26T03:38:47;98813.16;;;13.87;100.00
28630;BME280;15817;42.130;24.762;2023-04-26T03:41:17;98825.56;;;13.90;100.00
28630;BME280;15817;42.130;24.762;2023-04-26T03:43:43;98832.69;;;13.89;100.00
28630;BME280;15817;42.130;24.762;2023-04-26T03:46:34;98839.78;;;13.90;100.00
28630;BME280;15817;42.130;24.762;2023-04-26T03:49:00;98837.41;;;13.83;100.00
28630;BME280;15817;42.130;24.762;2023-04-26T03:51:26;98841.84;;;13.84;100.00
28630;BME280;15817;42.130;24.762;2023-04-26T03:53:53;98836.63;;;13.79;100.00
28630;BME280;15817;42.130;24.762;2023-04-26T03:56:19;98849.06;;;13.80;100.00
28630;BME280;15817;42.130;24.762;2023-04-26T04:02:07;98854.38;;;13.82;100.00
28630;BME280;15817;42.130;24.762;2023-04-26T04:05:03;98856.06;;;13.84;100.00
28630;BME280;15817;42.130;24.762;2023-04-26T04:07:52;98850.00;;;13.79;100.00
28630;BME280;15817;42.130;24.762;2023-04-26T04:10:21;98850.03;;;13.77;100.00
28630;BME280;15817;42.130;24.762;2023-04-26T04:12:48;98858.75;;;13.84;100.00
28630;BME280;15817;42.130;24.762;2023-04-26T04:15:27;98838.47;;;13.77;100.00
28630;BME280;15817;42.130;24.762;2023-04-26T04:17:56;98846.50;;;13.77;100.00
28630;BME280;15817;42.130;24.762;2023-04-26T04:20:33;98864.09;;;13.84;100.00
28630;BME280;15817;42.130;24.762;2023-04-26T04:23:18;98852.72;;;13.77;100.00
28630;BME280;15817;42.130;24.762;2023-04-26T04:25:46;98850.09;;;13.76;100.00
28630;BME280;15817;42.130;24.762;2023-04-26T04:28:13;98845.72;;;13.73;100.00
28630;BME280;15817;42.130;24.762;2023-04-26T04:30:42;98845.72;;;13.73;100.00
28630;BME280;15817;42.130;24.762;2023-04-26T04:33:11;98840.50;;;13.70;100.00
28630;BME280;15817;42.130;24.762;2023-04-26T04:35:47;98846.69;;;13.72;100.00
28630;BME280;15817;42.130;24.762;2023-04-26T04:38:13;98850.03;;;13.77;100.00
28630;BME280;15817;42.130;24.762;2023-04-26T04:40:39;98850.16;;;13.74;100.00
28630;BME280;15817;42.130;24.762;2023-04-26T04:43:06;98858.06;;;13.77;100.00
28630;BME280;15817;42.130;24.762;2023-04-26T04:45:35;98845.63;;;13.76;100.00
28630;BME280;15817;42.130;24.762;2023-04-26T04:48:09;98858.00;;;13.79;100.00
28630;BME280;15817;42.130;24.762;2023-04-26T04:50:38;98864.28;;;13.78;100.00
28630;BME280;15817;42.130;24.762;2023-04-26T04:53:04;98851.84;;;13.77;100.00
28630;BME280;15817;42.130;24.762;2023-04-26T04:55:30;98844.69;;;13.77;100.00
28630;BME280;15817;42.130;24.762;2023-04-26T04:58:03;98849.13;;;13.78;100.00
28630;BME280;15817;42.130;24.762;2023-04-26T05:00:37;98862.19;;;13.86;100.00
28630;BME280;15817;42.130;24.762;2023-04-26T05:03:16;98854.31;;;13.83;100.00
28630;BME280;15817;42.130;24.762;2023-04-26T05:05:42;98839.94;;;13.86;100.00
28630;BME280;15817;42.130;24.762;2023-04-26T05:08:08;98843.41;;;13.89;100.00
28630;BME280;15817;42.130;24.762;2023-04-26T05:10:34;98855.75;;;13.93;100.00
28630;BME280;15817;42.130;24.762;2023-04-26T05:13:01;98846.00;;;13.91;100.00
28630;BME280;15817;42.130;24.762;2023-04-26T05:15:30;98863.56;;;13.98;100.00
28630;BME280;15817;42.130;24.762;2023-04-26T05:17:57;98858.16;;;13.99;100.00
28630;BME280;15817;42.130;24.762;2023-04-26T05:20:27;98846.75;;;13.96;100.00
28630;BME280;15817;42.130;24.762;2023-04-26T05:22:54;98857.19;;;14.02;100.00
28630;BME280;15817;42.130;24.762;2023-04-26T05:25:20;98850.94;;;14.03;100.00
28630;BME280;15817;42.130;24.762;2023-04-26T05:27:48;98851.69;;;14.06;100.00
28630;BME280;15817;42.130;24.762;2023-04-26T05:30:19;98848.84;;;14.11;100.00
28630;BME280;15817;42.130;24.762;2023-04-26T05:32:54;98839.25;;;14.05;100.00
28630;BME280;15817;42.130;24.762;2023-04-26T05:35:47;98841.16;;;14.02;100.00
28630;BME280;15817;42.130;24.762;2023-04-26T05:38:13;98841.00;;;14.06;100.00
28630;BME280;15817;42.130;24.762;2023-04-26T05:40:41;98850.69;;;14.09;100.00
28630;BME280;15817;42.130;24.762;2023-04-26T05:43:07;98841.75;;;14.10;100.00
28630;BME280;15817;42.130;24.762;2023-04-26T05:45:35;98848.84;;;14.11;100.00
28630;BME280;15817;42.130;24.762;2023-04-26T05:48:04;98847.84;;;14.13;100.00
28630;BME280;15817;42.130;24.762;2023-04-26T05:50:31;98846.88;;;14.16;100.00
28630;BME280;15817;42.130;24.762;2023-04-26T05:52:57;98856.34;;;14.25;100.00
28630;BME280;15817;42.130;24.762;2023-04-26T05:55:23;98846.59;;;14.24;100.00
28630;BME280;15817;42.130;24.762;2023-04-26T05:57:49;98860.63;;;14.30;99.54
28630;BME280;15817;42.130;24.762;2023-04-26T06:00:15;98856.31;;;14.26;98.35
28630;BME280;15817;42.130;24.762;2023-04-26T06:02:46;98863.22;;;14.32;97.27
28630;BME280;15817;42.130;24.762;2023-04-26T06:05:16;98868.34;;;14.38;95.42
28630;BME280;15817;42.130;24.762;2023-04-26T06:07:42;98861.19;;;14.38;95.94
28630;BME280;15817;42.130;24.762;2023-04-26T06:10:11;98843.56;;;14.33;95.18
28630;BME280;15817;42.130;24.762;2023-04-26T06:12:48;98847.88;;;14.37;95.64
28630;BME280;15817;42.130;24.762;2023-04-26T06:15:19;98859.06;;;14.48;95.77
28630;BME280;15817;42.130;24.762;2023-04-26T06:17:47;98844.88;;;14.46;93.66
28630;BME280;15817;42.130;24.762;2023-04-26T06:20:16;98838.75;;;14.42;94.20
28630;BME280;15817;42.130;24.762;2023-04-26T06:22:42;98857.22;;;14.50;94.66
28630;BME280;15817;42.130;24.762;2023-04-26T06:25:13;98848.63;;;14.42;93.94
28630;BME280;15817;42.130;24.762;2023-04-26T06:27:40;98842.41;;;14.41;93.81
28630;BME280;15817;42.130;24.762;2023-04-26T06:30:08;98851.06;;;14.48;94.58
28630;BME280;15817;42.130;24.762;2023-04-26T06:32:39;98850.22;;;14.46;93.68
28630;BME280;15817;42.130;24.762;2023-04-26T06:35:19;98834.84;;;14.53;93.34
28630;BME280;15817;42.130;24.762;2023-04-26T06:37:45;98841.75;;;14.58;92.82
28630;BME280;15817;42.130;24.762;2023-04-26T06:40:11;98846.94;;;14.63;92.00
28630;BME280;15817;42.130;24.762;2023-04-26T06:42:43;98841.69;;;14.60;90.35
28630;BME280;15817;42.130;24.762;2023-04-26T06:45:15;98858.16;;;14.72;89.71
28630;BME280;15817;42.130;24.762;2023-04-26T06:47:43;98859.00;;;14.73;89.86
28630;BME280;15817;42.130;24.762;2023-04-26T06:50:09;98849.28;;;14.70;89.20
28630;BME280;15817;42.130;24.762;2023-04-26T06:52:35;98846.78;;;14.66;89.67
28630;BME280;15817;42.130;24.762;2023-04-26T06:55:07;98844.94;;;14.68;89.97
28630;BME280;15817;42.130;24.762;2023-04-26T06:57:36;98854.47;;;14.75;90.03
28630;BME280;15817;42.130;24.762;2023-04-26T07:00:04;98839.41;;;14.72;89.13
28630;BME280;15817;42.130;24.762;2023-04-26T07:02:42;98850.63;;;14.82;89.67
28630;BME280;15817;42.130;24.762;2023-04-26T07:05:13;98844.22;;;14.86;90.63
28630;BME280;15817;42.130;24.762;2023-04-26T07:07:39;98845.03;;;14.88;90.87
28630;BME280;15817;42.130;24.762;2023-04-26T07:10:06;98845.66;;;14.95;91.75
28630;BME280;15817;42.130;24.762;2023-04-26T07:12:35;98848.22;;;14.98;91.89
28630;BME280;15817;42.130;24.762;2023-04-26T07:15:02;98857.91;;;15.00;91.90
28630;BME280;15817;42.130;24.762;2023-04-26T07:17:30;98855.06;;;15.05;91.47
28630;BME280;15817;42.130;24.762;2023-04-26T07:20:01;98855.06;;;15.05;90.43
28630;BME280;15817;42.130;24.762;2023-04-26T07:22:28;98867.09;;;15.16;90.00
28630;BME280;15817;42.130;24.762;2023-04-26T07:25:00;98860.69;;;15.20;89.60
28630;BME280;15817;42.130;24.762;2023-04-26T07:27:29;98865.38;;;15.36;86.96
28630;BME280;15817;42.130;24.762;2023-04-26T07:30:05;98866.13;;;15.39;86.76
28630;BME280;15817;42.130;24.762;2023-04-26T07:32:31;98853.94;;;15.32;86.26
28630;BME280;15817;42.130;24.762;2023-04-26T07:34:57;98856.34;;;15.38;88.33
28630;BME280;15817;42.130;24.762;2023-04-26T07:40:19;98874.00;;;15.44;85.75
28630;BME280;15817;42.130;24.762;2023-04-26T07:42:51;98860.84;;;15.38;85.57
28630;BME280;15817;42.130;24.762;2023-04-26T07:45:20;98867.75;;;15.43;84.51
28630;BME280;15817;42.130;24.762;2023-04-26T07:47:49;98879.41;;;15.42;82.33
28630;BME280;15817;42.130;24.762;2023-04-26T07:50:15;98872.13;;;15.46;82.19
28630;BME280;15817;42.130;24.762;2023-04-26T07:52:41;98879.03;;;15.51;82.11
28630;BME280;15817;42.130;24.762;2023-04-26T07:55:08;98864.69;;;15.52;81.06
28630;BME280;15817;42.130;24.762;2023-04-26T07:57:33;98870.38;;;15.67;80.65
28630;BME280;15817;42.130;24.762;2023-04-26T08:00:04;98868.94;;;15.80;79.94
28630;BME280;15817;42.130;24.762;2023-04-26T08:02:37;98868.81;;;16.03;79.28
28630;BME280;15817;42.130;24.762;2023-04-26T08:05:04;98868.34;;;16.33;77.06
28630;BME280;15817;42.130;24.762;2023-04-26T08:07:29;98873.81;;;16.70;75.49
28630;BME280;15817;42.130;24.762;2023-04-26T08:09:55;98859.34;;;17.10;72.75
28630;BME280;15817;42.130;24.762;2023-04-26T08:12:23;98871.47;;;17.55;69.17
28630;BME280;15817;42.130;24.762;2023-04-26T08:14:49;98859.41;;;17.81;68.11
28630;BME280;15817;42.130;24.762;2023-04-26T08:17:15;98871.94;;;17.99;66.33
28630;BME280;15817;42.130;24.762;2023-04-26T08:19:41;98864.56;;;17.68;66.17
28630;BME280;15817;42.130;24.762;2023-04-26T08:22:07;98851.75;;;17.54;67.88
28630;BME280;15817;42.130;24.762;2023-04-26T08:24:33;98865.88;;;17.23;68.87
28630;BME280;15817;42.130;24.762;2023-04-26T08:27:02;98849.72;;;17.06;69.37
28630;BME280;15817;42.130;24.762;2023-04-26T08:29:30;98857.03;;;17.02;70.88
28630;BME280;15817;42.130;24.762;2023-04-26T08:31:55;98851.25;;;16.93;70.30
28630;BME280;15817;42.130;24.762;2023-04-26T08:34:21;98845.97;;;16.73;69.42
28630;BME280;15817;42.130;24.762;2023-04-26T08:36:47;98847.47;;;16.78;69.81
28630;BME280;15817;42.130;24.762;2023-04-26T08:39:13;98850.72;;;16.85;69.87
28630;BME280;15817;42.130;24.762;2023-04-26T08:41:44;98842.53;;;16.88;69.75
28630;BME280;15817;42.130;24.762;2023-04-26T08:44:10;98847.81;;;16.89;69.58
28630;BME280;15817;42.130;24.762;2023-04-26T08:46:49;98842.91;;;16.80;68.05
28630;BME280;15817;42.130;24.762;2023-04-26T08:51:55;98841.59;;;16.70;66.65
28630;BME280;15817;42.130;24.762;2023-04-26T08:54:22;98841.59;;;16.70;68.51
28630;BME280;15817;42.130;24.762;2023-04-26T08:56:50;98836.00;;;16.75;69.23
28630;BME280;15817;42.130;24.762;2023-04-26T08:59:18;98833.03;;;16.81;69.99
28630;BME280;15817;42.130;24.762;2023-04-26T09:01:45;98826.41;;;16.88;69.55
28630;BME280;15817;42.130;24.762;2023-04-26T09:04:11;98825.28;;;17.11;69.57
28630;BME280;15817;42.130;24.762;2023-04-26T09:06:40;98825.09;;;17.32;68.39
28630;BME280;15817;42.130;24.762;2023-04-26T09:09:07;98830.09;;;17.76;65.54
28630;BME280;15817;42.130;24.762;2023-04-26T09:11:52;98827.81;;;18.19;63.17
28630;BME280;15817;42.130;24.762;2023-04-26T09:14:18;98825.13;;;18.52;59.89
28630;BME280;15817;42.130;24.762;2023-04-26T09:16:44;98825.97;;;18.85;59.27
28630;BME280;15817;42.130;24.762;2023-04-26T09:19:10;98829.97;;;18.94;56.08
28630;BME280;15817;42.130;24.762;2023-04-26T09:21:43;98819.19;;;18.62;54.75
28630;BME280;15817;42.130;24.762;2023-04-26T09:24:12;98821.94;;;18.61;57.06
28630;BME280;15817;42.130;24.762;2023-04-26T09:26:38;98816.97;;;18.53;57.81
28630;BME280;15817;42.130;24.762;2023-04-26T09:29:14;98826.22;;;18.48;56.19
28630;BME280;15817;42.130;24.762;2023-04-26T09:31:44;98814.38;;;18.19;54.51
28630;BME280;15817;42.130;24.762;2023-04-26T09:34:11;98821.81;;;18.14;57.19
28630;BME280;15817;42.130;24.762;2023-04-26T09:36:56;98821.75;;;17.98;58.32
28630;BME280;15817;42.130;24.762;2023-04-26T09:39:36;98803.88;;;17.97;58.66
28630;BME280;15817;42.130;24.762;2023-04-26T09:42:08;98818.25;;;18.13;59.11
28630;BME280;15817;42.130;24.762;2023-04-26T09:44:35;98802.22;;;18.27;59.27
28630;BME280;15817;42.130;24.762;2023-04-26T09:47:09;98805.88;;;18.59;58.34
28630;BME280;15817;42.130;24.762;2023-04-26T09:49:49;98816.31;;;18.65;59.38
28630;BME280;15817;42.130;24.762;2023-04-26T09:52:17;98812.25;;;18.90;57.61
28630;BME280;15817;42.130;24.762;2023-04-26T09:54:48;98803.09;;;18.92;58.30
28630;BME280;15817;42.130;24.762;2023-04-26T09:57:15;98802.59;;;18.86;58.65
28630;BME280;15817;42.130;24.762;2023-04-26T09:59:46;98793.56;;;19.02;58.79
28630;BME280;15817;42.130;24.762;2023-04-26T10:02:22;98800.69;;;19.03;58.45
28630;BME280;15817;42.130;24.762;2023-04-26T10:04:50;98792.88;;;18.99;58.72
28630;BME280;15817;42.130;24.762;2023-04-26T10:07:19;98788.88;;;18.90;59.11
28630;BME280;15817;42.130;24.762;2023-04-26T10:09:45;98780.34;;;18.82;59.27
28630;BME280;15817;42.130;24.762;2023-04-26T10:12:18;98777.66;;;18.66;60.03
28630;BME280;15817;42.130;24.762;2023-04-26T10:14:47;98785.53;;;18.54;61.02
28630;BME280;15817;42.130;24.762;2023-04-26T10:17:18;98778.47;;;18.51;64.02
28630;BME280;15817;42.130;24.762;2023-04-26T10:19:47;98790.53;;;18.77;61.30
28630;BME280;15817;42.130;24.762;2023-04-26T10:22:27;98776.50;;;18.70;59.67
28630;BME280;15817;42.130;24.762;2023-04-26T10:24:56;98762.41;;;18.50;58.34
28630;BME280;15817;42.130;24.762;2023-04-26T10:30:20;98763.66;;;18.27;59.79
28630;BME280;15817;42.130;24.762;2023-04-26T10:36:14;98783.34;;;18.12;59.58
28630;BME280;15817;42.130;24.762;2023-04-26T10:39:17;98774.91;;;18.02;58.69
28630;BME280;15817;42.130;24.762;2023-04-26T10:41:45;98770.28;;;17.88;59.26
28630;BME280;15817;42.130;24.762;2023-04-26T10:44:41;98773.72;;;17.90;60.12
28630;BME280;15817;42.130;24.762;2023-04-26T10:47:34;98782.06;;;17.86;60.60
28630;BME280;15817;42.130;24.762;2023-04-26T10:59:19;98763.88;;;17.73;61.81
28630;BME280;15817;42.130;24.762;2023-04-26T11:01:48;98767.59;;;17.71;62.67
28630;BME280;15817;42.130;24.762;2023-04-26T11:04:24;98768.69;;;17.67;61.85
28630;BME280;15817;42.130;24.762;2023-04-26T11:07:07;98775.50;;;17.74;62.25
28630;BME280;15817;42.130;24.762;2023-04-26T11:09:47;98761.75;;;17.63;61.44
28630;BME280;15817;42.130;24.762;2023-04-26T11:12:14;98764.47;;;17.61;62.08
28630;BME280;15817;42.130;24.762;2023-04-26T11:14:44;98777.94;;;17.61;62.55
28630;BME280;15817;42.130;24.762;2023-04-26T11:17:20;98773.50;;;17.60;63.35
28630;BME280;15817;42.130;24.762;2023-04-26T11:19:46;98772.69;;;17.58;64.08
28630;BME280;15817;42.130;24.762;2023-04-26T11:22:21;98779.91;;;17.58;64.04
28630;BME280;15817;42.130;24.762;2023-04-26T11:24:48;98768.53;;;17.53;65.01
28630;BME280;15817;42.130;24.762;2023-04-26T11:27:14;98787.88;;;17.59;64.31
28630;BME280;15817;42.130;24.762;2023-04-26T11:29:40;98780.75;;;17.58;64.50
28630;BME280;15817;42.130;24.762;2023-04-26T11:32:09;98791.53;;;17.58;61.71
28630;BME280;15817;42.130;24.762;2023-04-26T11:34:37;98783.31;;;17.61;62.43
28630;BME280;15817;42.130;24.762;2023-04-26T11:37:06;98785.88;;;17.64;62.77
28630;BME280;15817;42.130;24.762;2023-04-26T11:39:36;98786.28;;;17.55;60.55
28630;BME280;15817;42.130;24.762;2023-04-26T11:42:05;98790.81;;;17.55;60.30
28630;BME280;15817;42.130;24.762;2023-04-26T11:44:38;98793.34;;;17.58;60.94
28630;BME280;15817;42.130;24.762;2023-04-26T11:47:08;98795.63;;;17.48;59.69
28630;BME280;15817;42.130;24.762;2023-04-26T11:49:48;98792.28;;;17.43;59.78
28630;BME280;15817;42.130;24.762;2023-04-26T11:52:27;98799.25;;;17.47;61.56
28630;BME280;15817;42.130;24.762;2023-04-26T11:55:06;98803.78;;;17.47;60.07
28630;BME280;15817;42.130;24.762;2023-04-26T11:57:33;98814.59;;;17.45;60.29
28630;BME280;15817;42.130;24.762;2023-04-26T12:00:09;98813.25;;;17.36;59.92
28630;BME280;15817;42.130;24.762;2023-04-26T12:02:42;98817.75;;;17.36;60.46
28630;BME280;15817;42.130;24.762;2023-04-26T12:05:28;98817.75;;;17.36;60.95
28630;BME280;15817;42.130;24.762;2023-04-26T12:11:00;98826.75;;;17.35;61.13
28630;BME280;15817;42.130;24.762;2023-04-26T12:13:29;98828.44;;;17.37;60.22
28630;BME280;15817;42.130;24.762;2023-04-26T12:16:12;98833.66;;;17.41;60.29
28630;BME280;15817;42.130;24.762;2023-04-26T12:18:48;98835.31;;;17.43;60.07
28630;BME280;15817;42.130;24.762;2023-04-26T12:21:14;98824.47;;;17.45;61.07
28630;BME280;15817;42.130;24.762;2023-04-26T12:23:46;98816.50;;;17.43;60.48
28630;BME280;15817;42.130;24.762;2023-04-26T12:26:13;98826.38;;;17.43;61.81
28630;BME280;15817;42.130;24.762;2023-04-26T12:28:38;98812.38;;;17.36;68.25
28630;BME280;15817;42.130;24.762;2023-04-26T12:31:07;98808.75;;;17.37;71.33
28630;BME280;15817;42.130;24.762;2023-04-26T12:33:34;98813.66;;;17.46;72.56
28630;BME280;15817;42.130;24.762;2023-04-26T12:36:13;98819.69;;;17.51;72.40
28630;BME280;15817;42.130;24.762;2023-04-26T12:38:39;98798.53;;;17.44;72.40
28630;BME280;15817;42.130;24.762;2023-04-26T12:41:05;98798.06;;;17.35;69.96
28630;BME280;15817;42.130;24.762;2023-04-26T12:43:36;98810.72;;;17.33;67.60
28630;BME280;15817;42.130;24.762;2023-04-26T12:46:08;98805.34;;;17.33;65.63
28630;BME280;15817;42.130;24.762;2023-04-26T12:55:38;98807.53;;;17.25;67.30
28630;BME280;15817;42.130;24.762;2023-04-26T12:58:20;98806.81;;;17.22;69.95
28630;BME280;15817;42.130;24.762;2023-04-26T13:01:24;98808.72;;;17.20;71.15
28630;BME280;15817;42.130;24.762;2023-04-26T13:04:01;98816.94;;;17.17;72.05
28630;BME280;15817;42.130;24.762;2023-04-26T13:06:34;98797.63;;;17.09;72.91
28630;BME280;15817;42.130;24.762;2023-04-26T13:09:09;98801.84;;;17.14;72.20
28630;BME280;15817;42.130;24.762;2023-04-26T13:11:40;98806.28;;;17.15;73.56
28630;BME280;15817;42.130;24.762;2023-04-26T13:14:13;98797.47;;;17.12;72.90
28630;BME280;15817;42.130;24.762;2023-04-26T13:17:12;98803.09;;;17.07;68.00
28630;BME280;15817;42.130;24.762;2023-04-26T13:19:37;98804.66;;;17.11;67.46
28630;BME280;15817;42.130;24.762;2023-04-26T13:22:06;98807.44;;;17.10;68.21
28630;BME280;15817;42.130;24.762;2023-04-26T13:24:37;98801.09;;;17.11;71.70
28630;BME280;15817;42.130;24.762;2023-04-26T13:27:11;98796.41;;;17.16;73.00
28630;BME280;15817;42.130;24.762;2023-04-26T13:29:40;98800.16;;;17.12;71.06
28630;BME280;15817;42.130;24.762;2023-04-26T13:32:06;98800.25;;;17.10;70.87
28630;BME280;15817;42.130;24.762;2023-04-26T13:35:05;98808.16;;;17.13;68.49